メインページ
METAR-TAF:

METAR-TAF

空港 :

ナナイモ空港

ナナイモ, ブリティッシュコロンビア州, カナダ

緯度: 49-03N, 経度: 123-52W, 海抜: 28m

現時点の気象観測

当レポートは39分前の23:19(UTC)に作成
東/南東の風 9kt
気温 11°C
湿度 94%
気圧 1000 hPa
視程: 8.0km
高度1000ftの雲はほとんどない
高度3500ftの千切れ雲あり
高度6000ftの曇り
弱いにわか雨, 靄

METAR: CYCD 172319Z 12009KT 5SM -SHRA BR FEW010 BKN035 OVC060 11/10 A2952 WS ALL RWY RMK SF1SC5SC2 TCU EMBD SLP999 DENSITY ALT 100FT

時間: 16:58 (23:58 UTC)

予報

当レポートは20分前の23:38(UTC)に作成
予報は18日の 00時(UTC)から 18日の 04時(UTC)まで有効
東/南東の風 10kt
視程: 10km
高度4000ftの千切れ雲あり
18日の 00時(UTC)から 18日の 04時(UTC)まで一時的に
視程: 8.0km
高度2000ftの千切れ雲あり
弱いにわか雨, 靄
18日の 01時(UTC)から 18日の 03時(UTC)まで徐々に
南西の風 5kt

TAF: CYCD 172338Z 1800/1804 12010KT P6SM BKN040 TEMPO 1800/1804 5SM -SHRA BR BKN020 BECMG 1801/1803 22005KT RMK NXT FCST WILL BE ISSUED AT 181445Z

4,000以上の空港の気象観測と天気予報(METAR報とTAF報)

利用可能な観測所は地図上に黄色い丸と赤い丸で示す。

丸の上にカーソルを重ねると観測所名を参照できる。

次にクリックすると気象観測と天気予報を参照できる。

マップの切り替え:黒色「×」印の緑ボタンをクリックして拡大、「-」印の緑ボタンをクリックして縮小、緑色の三角印をクリックして隣りの地図に切り替え


METAR-TAF: